Flight Number: EUR3087 Duration: 11:30
Departure: Bangkok Suvarnabhumi (VTBS) at 06:30 Distance: 5167 Nm
Arrival: Gatwick Airport (EGKK) at 18:00 Equipment: B747

Weather Information
Chon Buri, Thailand (VTBS) 13-22N 100-59E 2M Feb 19, 2018 - 02:30 AM EST / 2018.02.19 0730 UTC
Wind: from the SSW (200 degrees) at 10 MPH (9 KT) (direction variable):0
Visibility: 5 mile(s):0
Sky conditions: mostly clear Weather: Cumulonimbus clouds observed Temperature: 87 F (31 C) Heat index: 92.3 F (33.5 C):1 Dew Point: 71 F (22 C) Relative Humidity: 58% Pressure (altimeter): 29.80 in. Hg (1009 hPa)
ob: VTBS 190730Z 20009KT 170V240 9000 FEW020CB 31/22 Q1009 NOSIG cycle: 7
Sunrise: 23:40 Sunset: 11:20 (UTC)

London / Gatwick Airport, United Kingdom (EGKK) 51-09N 000-11W 0M Feb 19, 2018 - 02:20 AM EST / 2018.02.19 0720 UTC
Wind: from the SW (220 degrees) at 3 MPH (3 KT):0
Visibility: 1 mile(s):0
Sky conditions: overcast Weather: light drizzle Temperature: 44 F (7 C) Dew Point: 44 F (7 C) Relative Humidity: 100% Pressure (altimeter): 30.03 in. Hg (1017 hPa)
ob: EGKK 190720Z 22003KT 3000 -DZ BKN004 OVC021 07/07 Q1017 cycle: 7
Sunrise: 07:08 Sunset: 17:20 (UTC)

TAF:2018/02/19 06:20 TAF EGKK 190458Z 1906/2012 20003KT 4000 -DZ BR BKN006 TEMPO 1906/1910 0300 DZ FG BKN001 TEMPO 1910/2006 RADZ BKN003 BECMG 1912/1915 33010KT

This route has never been flown.

Route map